Time;durP1;ratioP1;P1;durP2;ratioP2;P2;SDS_P1;SDS_P2;PMS_P1;PMS_P2;Temp;Humidity;BMP_temperature;BMP_pressure;BME280_temperature;BME280_humidity;BME280_pressure;Samples;Min_cycle;Max_cycle;Signal;HPM_P1;HPM_P2
2021/09/18 00:00:48;;;;;;;;;15.25;14.25;;;;;20.90;46.23;100937.34;5031714;28;45605;-58
2021/09/18 00:03:14;;;;;;;;;15.50;13.75;;;;;20.80;46.07;100920.97;5017874;28;45288;-58
2021/09/18 00:05:39;;;;;;;;;15.25;14.75;;;;;20.85;46.66;100934.94;5009371;28;47278;-58
2021/09/18 00:08:05;;;;;;;;;15.00;15.00;;;;;20.83;46.69;100933.28;4998968;28;45667;-58
2021/09/18 00:10:30;;;;;;;;;14.25;14.25;;;;;20.81;46.12;100927.19;5002187;28;45410;-58
2021/09/18 00:12:56;;;;;;;;;19.50;16.00;;;;;20.79;46.69;100935.25;5014500;28;45454;-58
2021/09/18 00:15:21;;;;;;;;;16.50;15.50;;;;;20.75;46.62;100929.25;5020591;28;45284;-57
2021/09/18 00:17:46;;;;;;;;;18.50;16.50;;;;;20.72;46.83;100926.72;5019223;28;45271;-58
2021/09/18 00:20:12;;;;;;;;;14.25;14.25;;;;;20.72;46.27;100931.22;5020700;28;45233;-57
2021/09/18 00:22:37;;;;;;;;;17.50;14.25;;;;;20.69;46.32;100929.53;5001518;28;45484;-57
2021/09/18 00:25:03;;;;;;;;;19.50;18.75;;;;;20.66;46.83;100932.34;4999588;28;46501;-57
2021/09/18 00:27:28;;;;;;;;;17.50;16.50;;;;;20.61;46.95;100924.59;5002070;28;45265;-57
2021/09/18 00:29:54;;;;;;;;;19.50;17.75;;;;;20.59;46.71;100929.16;5016212;28;45158;-58
2021/09/18 00:32:19;;;;;;;;;14.50;13.50;;;;;20.57;46.47;100933.72;5018143;28;45447;-58
2021/09/18 00:34:44;;;;;;;;;18.50;18.00;;;;;20.55;47.01;100935.63;5008525;28;46411;-57
2021/09/18 00:37:10;;;;;;;;;17.75;16.00;;;;;20.53;46.54;100933.97;5009515;28;45229;-58
2021/09/18 00:39:35;;;;;;;;;16.25;16.25;;;;;20.51;46.68;100933.19;5000333;28;45571;-57
2021/09/18 00:42:01;;;;;;;;;17.50;17.25;;;;;20.48;46.67;100930.66;5000144;28;45636;-58
2021/09/18 00:44:27;;;;;;;;;17.75;16.50;;;;;20.44;47.15;100933.50;5000347;28;46289;-58
2021/09/18 00:46:53;;;;;;;;;15.50;15.50;;;;;20.40;46.85;100920.41;4998994;28;45901;-58
2021/09/18 00:49:19;;;;;;;;;14.75;14.75;;;;;20.39;47.46;100929.34;5000436;28;45253;-57
2021/09/18 00:51:45;;;;;;;;;16.00;15.25;;;;;20.37;46.82;100928.56;5000076;28;45540;-58
2021/09/18 00:54:13;;;;;;;;;18.50;16.25;;;;;20.35;47.41;100920.66;5000308;28;45435;-57
2021/09/18 00:56:40;;;;;;;;;19.00;17.75;;;;;20.33;47.33;100919.00;4999684;28;45346;-58
2021/09/18 00:59:06;;;;;;;;;14.00;14.00;;;;;20.30;47.28;100910.22;5000386;28;45490;-57
2021/09/18 01:01:31;;;;;;;;;15.50;15.25;;;;;20.28;47.10;100912.09;5000554;28;45321;-57
2021/09/18 01:03:59;;;;;;;;;16.50;14.25;;;;;20.26;47.46;100926.47;5010809;28;45511;-58
2021/09/18 01:06:25;;;;;;;;;15.50;15.00;;;;;20.23;47.58;100907.94;4999969;28;45364;-57
2021/09/18 01:08:56;;;;;;;;;17.50;15.00;;;;;20.22;47.57;100915.06;5000137;28;45322;-57
2021/09/18 01:11:22;;;;;;;;;18.75;16.75;;;;;20.20;47.33;100908.09;4999712;28;45531;-57
2021/09/18 01:13:47;;;;;;;;;18.25;15.50;;;;;20.18;47.23;100915.34;4999720;28;45361;-58
2021/09/18 01:16:12;;;;;;;;;14.75;14.75;;;;;20.15;47.68;100908.34;5014862;28;45368;-57
2021/09/18 01:18:38;;;;;;;;;17.75;16.25;;;;;20.12;47.19;100911.16;5019882;28;45315;-57
2021/09/18 01:21:03;;;;;;;;;19.75;18.50;;;;;20.07;47.56;100898.06;5019667;28;45433;-57
2021/09/18 01:23:29;;;;;;;;;14.00;12.00;;;;;20.06;47.44;100899.03;5008915;28;45380;-58
2021/09/18 01:25:54;;;;;;;;;18.00;17.00;;;;;20.07;47.79;100906.06;5015471;28;45364;-57
2021/09/18 01:28:20;;;;;;;;;19.00;18.50;;;;;20.05;47.81;100902.63;5019711;28;45344;-58
2021/09/18 01:30:46;;;;;;;;;17.75;16.50;;;;;20.01;47.55;100897.53;5015019;28;45439;-57
2021/09/18 01:33:12;;;;;;;;;16.50;15.00;;;;;20.00;47.59;100895.78;5019375;28;46096;-57
2021/09/18 01:35:37;;;;;;;;;18.75;17.50;;;;;19.99;47.83;100902.94;5019726;28;45181;-57
2021/09/18 01:38:04;;;;;;;;;17.75;15.50;;;;;19.95;47.64;100901.38;5023194;28;45501;-57
2021/09/18 01:40:33;;;;;;;;;21.25;17.00;;;;;19.92;48.00;100902.41;5022801;28;45342;-58
2021/09/18 01:42:59;;;;;;;;;18.50;16.75;;;;;19.84;47.55;100888.59;5022625;28;46332;-57
2021/09/18 01:45:25;;;;;;;;;18.50;17.50;;;;;19.89;48.09;100901.69;5021567;28;45326;-57
2021/09/18 01:47:54;;;;;;;;;18.50;17.50;;;;;19.85;48.06;100900.97;5023150;28;45368;-57
2021/09/18 01:51:11;;;;;;;;;17.25;15.25;;;;;19.85;47.93;100910.75;5022651;28;45527;-58
2021/09/18 01:53:25;;;;;;;;;14.50;13.25;;;;;19.80;47.98;100898.50;5022319;28;45906;-57
2021/09/18 01:55:52;;;;;;;;;19.25;17.50;;;;;19.75;47.66;100900.53;5022351;28;45163;-57
2021/09/18 01:58:18;;;;;;;;;19.00;18.75;;;;;19.77;47.76;100914.66;5022564;28;45371;-58
2021/09/18 02:00:52;;;;;;;;;16.25;15.75;;;;;19.73;48.31;100913.06;5022455;28;45510;-57
2021/09/18 02:03:19;;;;;;;;;20.00;16.75;;;;;19.69;48.32;100908.84;5009008;28;45558;-57
2021/09/18 02:05:45;;;;;;;;;17.75;17.25;;;;;19.64;47.99;100909.06;5002722;28;45406;-57
2021/09/18 02:08:11;;;;;;;;;17.50;16.75;;;;;19.61;48.06;100913.72;5002697;28;45352;-57
2021/09/18 02:10:37;;;;;;;;;20.00;17.00;;;;;19.58;48.12;100903.19;5002629;28;45436;-57
2021/09/18 02:13:05;;;;;;;;;17.00;14.25;;;;;19.53;48.67;100899.88;5002389;28;45183;-57
2021/09/18 02:15:31;;;;;;;;;17.00;17.00;;;;;19.53;48.31;100902.53;5002680;28;45265;-58
2021/09/18 02:17:56;;;;;;;;;18.00;17.25;;;;;19.50;48.52;100900.91;5002631;28;45294;-57
2021/09/18 02:20:25;;;;;;;;;14.50;14.50;;;;;19.48;48.41;100906.31;5002561;28;45455;-58
2021/09/18 02:22:52;;;;;;;;;17.75;14.75;;;;;19.46;48.47;100902.84;5000985;28;45354;-58
2021/09/18 02:25:17;;;;;;;;;14.50;14.00;;;;;19.45;48.52;100903.78;5002305;28;45273;-57
2021/09/18 02:27:43;;;;;;;;;16.50;14.50;;;;;19.43;48.16;100903.00;5012053;28;45251;-57
2021/09/18 02:30:12;;;;;;;;;15.25;15.25;;;;;19.43;48.21;100905.69;5017882;28;45462;-57
2021/09/18 02:32:37;;;;;;;;;17.50;16.00;;;;;19.41;48.05;100904.88;5021992;28;47760;-58
2021/09/18 02:35:05;;;;;;;;;16.00;13.25;;;;;19.40;48.46;100902.28;5022112;28;45284;-57
2021/09/18 02:37:30;;;;;;;;;16.00;15.75;;;;;19.36;48.21;100898.03;5022195;28;45324;-57
2021/09/18 02:39:56;;;;;;;;;15.25;13.25;;;;;19.38;48.08;100897.00;5020512;28;45598;-58
2021/09/18 02:42:21;;;;;;;;;14.75;14.75;;;;;19.36;48.37;100893.59;5021766;28;45534;-58
2021/09/18 02:44:46;;;;;;;;;14.50;13.75;;;;;19.35;48.61;100888.34;5022164;28;45279;-58
2021/09/18 02:47:12;;;;;;;;;15.75;13.75;;;;;19.33;48.55;100886.59;5021997;28;45234;-58
2021/09/18 02:49:37;;;;;;;;;19.00;15.75;;;;;19.33;48.50;100883.94;5021513;28;45222;-58
2021/09/18 02:52:03;;;;;;;;;18.75;17.00;;;;;19.32;48.83;100886.69;5021801;28;46500;-58
2021/09/18 02:54:28;;;;;;;;;15.25;15.00;;;;;19.30;48.61;100889.41;5021806;28;45423;-57
2021/09/18 02:56:53;;;;;;;;;15.50;14.75;;;;;19.27;48.85;100883.34;5021891;28;45226;-58
2021/09/18 02:59:19;;;;;;;;;16.50;15.50;;;;;19.25;48.54;100882.59;5021928;28;45332;-58
2021/09/18 03:01:44;;;;;;;;;17.00;16.00;;;;;19.25;48.62;100886.09;5020979;28;45944;-57
2021/09/18 03:04:09;;;;;;;;;17.75;17.75;;;;;19.26;48.50;100889.66;5001864;28;45227;-58
2021/09/18 03:06:35;;;;;;;;;15.75;15.00;;;;;19.24;48.69;100889.69;5013448;28;45673;-58
2021/09/18 03:09:00;;;;;;;;;15.25;15.25;;;;;19.23;48.89;100895.09;5017814;28;45230;-58
2021/09/18 03:11:25;;;;;;;;;18.00;15.50;;;;;19.21;48.72;100897.00;5017150;28;45309;-58
2021/09/18 03:13:50;;;;;;;;;15.75;15.00;;;;;19.18;49.16;100900.63;5014785;28;45186;-58
2021/09/18 03:16:17;;;;;;;;;16.50;15.75;;;;;19.15;48.70;100896.31;5016740;28;45344;-57
2021/09/18 03:18:42;;;;;;;;;18.25;15.75;;;;;19.16;48.76;100900.72;5012383;28;45530;-57
2021/09/18 03:21:08;;;;;;;;;15.50;14.50;;;;;19.15;48.98;100893.66;5015132;28;46182;-58
2021/09/18 03:23:33;;;;;;;;;16.75;16.50;;;;;19.15;48.87;100903.47;5009787;28;45302;-57
2021/09/18 03:25:59;;;;;;;;;16.75;15.25;;;;;19.11;48.94;100878.78;5014663;28;45417;-58
2021/09/18 03:28:24;;;;;;;;;14.00;14.00;;;;;19.14;48.86;100893.75;5015277;28;45370;-58
2021/09/18 03:30:50;;;;;;;;;14.75;13.00;;;;;19.14;48.90;100888.41;5015476;28;46125;-58
2021/09/18 03:33:15;;;;;;;;;27.25;24.50;;;;;19.13;49.12;100886.69;5012401;28;45325;-58
2021/09/18 03:35:42;;;;;;;;;28.75;25.50;;;;;19.12;48.86;100882.31;5018914;28;45453;-58
2021/09/18 03:38:08;;;;;;;;;23.25;21.75;;;;;19.14;48.74;100885.75;5010251;28;45480;-58
2021/09/18 03:40:34;;;;;;;;;16.50;16.50;;;;;19.12;49.12;100874.31;5018043;28;45420;-57
2021/09/18 03:42:59;;;;;;;;;16.75;15.00;;;;;19.14;48.94;100875.09;5008991;28;45434;-62
2021/09/18 03:45:25;;;;;;;;;18.00;16.50;;;;;19.15;49.06;100872.34;5016229;28;45454;-57
2021/09/18 03:47:50;;;;;;;;;12.50;12.00;;;;;19.14;49.00;100868.00;5014153;28;45304;-57
2021/09/18 03:50:15;;;;;;;;;13.25;13.25;;;;;19.13;49.14;100865.38;5015690;28;46559;-57
2021/09/18 03:52:41;;;;;;;;;11.50;11.50;;;;;19.15;48.83;100868.84;5011413;28;45467;-57
2021/09/18 03:55:07;;;;;;;;;12.25;12.25;;;;;19.12;48.86;100861.00;5015241;28;45428;-58
2021/09/18 03:57:32;;;;;;;;;14.75;12.50;;;;;19.13;49.22;100878.69;5008769;28;45457;-57
2021/09/18 03:59:58;;;;;;;;;14.75;13.25;;;;;19.12;48.83;100872.50;5011485;28;45959;-58
2021/09/18 04:02:23;;;;;;;;;15.50;13.00;;;;;19.12;49.04;100874.31;5014863;28;45371;-57
2021/09/18 04:04:48;;;;;;;;;13.00;12.25;;;;;19.11;49.03;100878.78;5013246;28;45341;-57
2021/09/18 04:07:14;;;;;;;;;13.50;13.25;;;;;19.09;48.88;100885.97;5012931;28;45567;-57
2021/09/18 04:09:39;;;;;;;;;13.75;11.50;;;;;19.07;48.78;100887.84;5011730;28;45329;-57
2021/09/18 04:12:05;;;;;;;;;14.25;12.25;;;;;19.04;48.75;100887.97;5011680;28;45316;-57
2021/09/18 04:14:31;;;;;;;;;13.75;13.00;;;;;19.02;49.23;100897.88;5019205;28;45547;-57
2021/09/18 04:16:56;;;;;;;;;13.25;13.25;;;;;19.00;49.02;100895.28;5010665;28;45298;-57
2021/09/18 04:19:21;;;;;;;;;15.50;15.50;;;;;18.97;48.71;100897.22;5016184;28;45695;-57
2021/09/18 04:21:47;;;;;;;;;13.00;13.00;;;;;18.96;48.93;100892.81;5007975;28;45340;-57
2021/09/18 04:24:12;;;;;;;;;15.25;12.50;;;;;18.94;48.96;100895.56;5015447;28;45320;-57
2021/09/18 04:26:38;;;;;;;;;15.75;14.00;;;;;18.93;49.30;100892.94;5013171;28;45228;-57
2021/09/18 04:29:04;;;;;;;;;19.25;15.50;;;;;18.93;49.29;100903.59;5012365;28;45405;-58
2021/09/18 04:31:30;;;;;;;;;15.75;15.25;;;;;18.92;48.90;100899.25;5016474;28;45317;-57
2021/09/18 04:33:55;;;;;;;;;13.50;13.50;;;;;18.91;49.08;100887.69;5014082;28;45314;-57
2021/09/18 04:36:21;;;;;;;;;15.50;14.00;;;;;18.92;49.10;100893.91;5014910;28;45291;-58
2021/09/18 04:38:46;;;;;;;;;13.75;13.75;;;;;18.90;49.24;100895.75;5012639;28;46230;-57
2021/09/18 04:41:12;;;;;;;;;12.50;12.50;;;;;18.90;49.28;100899.28;5013050;28;45382;-57
2021/09/18 04:43:38;;;;;;;;;16.25;14.25;;;;;18.89;49.12;100894.84;5012186;28;45333;-57
2021/09/18 04:46:03;;;;;;;;;14.00;11.75;;;;;18.89;49.39;100894.00;5012172;28;45413;-57
2021/09/18 04:48:29;;;;;;;;;10.25;9.75;;;;;18.88;49.18;100903.81;5018484;28;46228;-57
2021/09/18 04:50:55;;;;;;;;;18.75;17.00;;;;;18.88;49.38;100900.25;5009688;28;45451;-58
2021/09/18 04:53:20;;;;;;;;;12.25;12.25;;;;;18.86;49.32;100899.50;5016063;28;45424;-57
2021/09/18 04:55:46;;;;;;;;;15.00;12.75;;;;;18.83;49.16;100896.03;5009966;28;45535;-57
2021/09/18 04:58:11;;;;;;;;;15.75;12.75;;;;;18.83;49.36;100895.16;5013577;28;45676;-57
2021/09/18 05:00:37;;;;;;;;;14.00;14.00;;;;;18.74;49.16;100888.47;5013101;28;45487;-57
2021/09/18 05:03:03;;;;;;;;;12.00;11.50;;;;;18.82;49.17;100906.75;5015722;28;45488;-57
2021/09/18 05:05:28;;;;;;;;;14.25;12.25;;;;;18.80;49.46;100904.16;5010908;28;45515;-57
2021/09/18 05:07:53;;;;;;;;;13.25;12.50;;;;;18.78;49.28;100903.34;5014459;28;45429;-57
2021/09/18 05:10:19;;;;;;;;;13.25;12.50;;;;;18.79;49.50;100915.75;5008282;28;45408;-57
2021/09/18 05:12:44;;;;;;;;;14.75;13.25;;;;;18.80;49.38;100911.28;5019986;28;45368;-58
2021/09/18 05:15:09;;;;;;;;;14.75;11.75;;;;;18.78;49.45;100914.00;5021040;28;45226;-57
2021/09/18 05:17:35;;;;;;;;;14.50;12.75;;;;;18.79;49.70;100914.84;5017596;28;45852;-57
2021/09/18 05:20:01;;;;;;;;;14.50;12.25;;;;;18.76;49.31;100910.53;5019972;28;45427;-57
2021/09/18 05:22:26;;;;;;;;;12.75;11.75;;;;;18.77;49.40;100908.75;5016605;28;45514;-57
2021/09/18 05:24:52;;;;;;;;;12.25;12.25;;;;;18.75;49.23;100905.28;5018463;28;45325;-57
2021/09/18 05:27:18;;;;;;;;;13.25;11.75;;;;;18.76;49.52;100913.19;5022620;28;46351;-57
2021/09/18 05:29:44;;;;;;;;;11.75;11.50;;;;;18.76;49.57;100915.88;5017912;28;45511;-57
2021/09/18 05:32:10;;;;;;;;;13.00;10.75;;;;;18.76;49.55;100912.34;5022998;28;45432;-57
2021/09/18 05:34:36;;;;;;;;;16.75;14.50;;;;;18.75;49.68;100911.47;5019748;28;45447;-58
2021/09/18 05:37:01;;;;;;;;;14.25;14.25;;;;;18.75;49.66;100919.44;5022118;28;45250;-57
2021/09/18 05:39:26;;;;;;;;;13.75;12.25;;;;;18.74;49.45;100917.75;5017331;28;45271;-57
2021/09/18 05:41:52;;;;;;;;;13.50;12.75;;;;;18.75;49.63;100918.59;5020859;28;45565;-57
2021/09/18 05:44:17;;;;;;;;;14.50;12.00;;;;;18.76;49.58;100925.66;5015088;28;45248;-58
2021/09/18 05:46:43;;;;;;;;;12.50;11.75;;;;;18.76;49.48;100933.66;5019791;28;45294;-57
2021/09/18 05:49:08;;;;;;;;;11.25;10.75;;;;;18.74;49.92;100928.41;5021402;28;45225;-57
2021/09/18 05:51:33;;;;;;;;;14.75;13.25;;;;;18.77;49.71;100932.72;5019126;28;45200;-57
2021/09/18 05:53:59;;;;;;;;;12.75;12.25;;;;;18.77;49.58;100928.25;5020659;28;45419;-58
2021/09/18 05:56:24;;;;;;;;;14.00;13.25;;;;;18.74;49.58;100923.06;5015138;28;45323;-57
2021/09/18 05:58:50;;;;;;;;;9.25;9.25;;;;;18.77;49.86;100928.25;5019003;28;45516;-58
2021/09/18 06:01:15;;;;;;;;;11.50;10.00;;;;;18.74;49.40;100920.41;5022351;28;45228;-58
2021/09/18 06:03:40;;;;;;;;;9.50;9.50;;;;;18.77;49.48;100928.25;5018216;28;45511;-58
2021/09/18 06:06:05;;;;;;;;;9.00;9.00;;;;;18.75;49.68;100922.13;5019958;28;46105;-57
2021/09/18 06:08:31;;;;;;;;;11.50;10.50;;;;;18.76;49.43;100928.31;5017277;28;45527;-57
2021/09/18 06:10:57;;;;;;;;;11.25;11.25;;;;;18.77;49.75;100932.72;5017408;28;45530;-57
2021/09/18 06:13:22;;;;;;;;;12.25;11.75;;;;;18.77;49.65;100933.56;5017867;28;46276;-58
2021/09/18 06:15:47;;;;;;;;;11.25;10.25;;;;;18.76;49.47;100938.97;5021122;28;46920;-57
2021/09/18 06:18:13;;;;;;;;;10.00;8.50;;;;;18.75;49.69;100940.75;5021196;28;45281;-57
2021/09/18 06:20:38;;;;;;;;;13.50;12.50;;;;;18.76;49.67;100949.63;5019801;28;45308;-57
2021/09/18 06:23:03;;;;;;;;;10.75;10.75;;;;;18.76;49.72;100947.81;5019199;28;45433;-56
2021/09/18 06:25:29;;;;;;;;;11.50;11.50;;;;;18.75;49.48;100951.41;5014255;28;46681;-56
2021/09/18 06:27:54;;;;;;;;;11.50;11.50;;;;;18.77;49.45;100954.88;5018646;28;45355;-56
2021/09/18 06:30:19;;;;;;;;;9.75;9.50;;;;;18.75;49.55;100948.72;5017916;28;45707;-56
2021/09/18 06:32:45;;;;;;;;;11.25;9.50;;;;;18.76;49.27;100945.16;5015390;28;45447;-57
2021/09/18 06:35:11;;;;;;;;;13.50;12.75;;;;;18.79;49.34;100941.47;5018044;28;46127;-57
2021/09/18 06:37:42;;;;;;;;;9.25;8.00;;;;;18.80;49.38;100938.78;5016354;28;46445;-57
2021/09/18 06:40:08;;;;;;;;;11.00;10.00;;;;;18.81;49.75;100948.47;5016704;28;45459;-57
2021/09/18 06:42:33;;;;;;;;;16.25;12.00;;;;;18.81;49.71;100942.28;5014485;28;45523;-56
2021/09/18 06:44:58;;;;;;;;;11.00;10.50;;;;;18.82;49.71;100931.56;5014966;28;46893;-52
2021/09/18 06:47:24;;;;;;;;;11.75;10.75;;;;;18.82;49.49;100931.56;5017330;28;45380;-56
2021/09/18 06:49:49;;;;;;;;;12.25;12.00;;;;;18.83;49.50;100938.63;5010952;28;45415;-56
2021/09/18 06:52:14;;;;;;;;;12.00;12.00;;;;;18.83;49.28;100938.63;5012830;28;45404;-52
2021/09/18 06:54:41;;;;;;;;;12.50;9.00;;;;;18.86;49.54;100944.75;5014183;28;45795;-56
2021/09/18 06:57:11;;;;;;;;;13.50;13.00;;;;;18.86;49.65;100942.94;5008890;28;45300;-57
2021/09/18 06:59:37;;;;;;;;;11.50;11.50;;;;;18.87;49.26;100941.13;5014825;28;45313;-57
2021/09/18 07:02:02;;;;;;;;;10.75;9.25;;;;;18.87;49.74;100935.81;5016286;28;45481;-53
2021/09/18 07:04:27;;;;;;;;;11.50;10.75;;;;;18.88;49.55;100935.75;5013551;28;45384;-56
2021/09/18 07:06:53;;;;;;;;;10.00;10.00;;;;;18.86;49.49;100934.09;5016784;28;45387;-58
2021/09/18 07:09:18;;;;;;;;;12.75;11.50;;;;;18.88;49.53;100930.44;5011259;28;45333;-57
2021/09/18 07:11:43;;;;;;;;;11.50;11.50;;;;;18.88;49.33;100933.09;5015888;28;45341;-56
2021/09/18 07:14:09;;;;;;;;;12.00;10.50;;;;;18.91;49.48;100932.97;5016629;28;46174;-53
2021/09/18 07:16:34;;;;;;;;;12.75;11.25;;;;;18.92;49.46;100933.84;5014063;28;45246;-56
2021/09/18 07:18:59;;;;;;;;;10.00;9.50;;;;;18.93;49.66;100932.88;5013537;28;45364;-53
2021/09/18 07:21:25;;;;;;;;;14.25;12.25;;;;;18.95;49.55;100933.69;5012897;28;45444;-54
2021/09/18 07:23:50;;;;;;;;;11.25;9.00;;;;;18.96;49.65;100938.94;5011960;28;45238;-52
2021/09/18 07:26:16;;;;;;;;;10.25;10.25;;;;;18.96;49.55;100943.41;5013433;28;45561;-53
2021/09/18 07:28:41;;;;;;;;;12.00;12.00;;;;;18.99;49.73;100952.13;5015281;28;45328;-54
2021/09/18 07:31:06;;;;;;;;;11.25;11.00;;;;;19.02;49.52;100948.47;5014588;28;45615;-56
2021/09/18 07:33:32;;;;;;;;;8.25;8.25;;;;;19.03;49.54;100951.97;5014637;28;46205;-53
2021/09/18 07:35:57;;;;;;;;;10.00;10.00;;;;;19.05;49.59;100947.44;5017718;28;45471;-53
2021/09/18 07:38:23;;;;;;;;;15.50;13.00;;;;;19.07;49.74;100943.78;5012627;28;45468;-53
2021/09/18 07:40:53;;;;;;;;;9.50;8.00;;;;;19.09;49.50;100944.56;5014323;28;45566;-49
2021/09/18 07:43:18;;;;;;;;;13.00;13.00;;;;;19.12;49.62;100948.91;5010314;28;47147;-51
2021/09/18 07:45:44;;;;;;;;;12.25;12.25;;;;;19.13;49.42;100955.94;5014891;28;45241;-52
2021/09/18 07:48:09;;;;;;;;;9.50;9.50;;;;;19.14;49.82;100945.22;5016838;28;45361;-54
2021/09/18 07:50:35;;;;;;;;;10.50;10.50;;;;;19.16;49.85;100946.00;5014455;28;45274;-54
2021/09/18 07:53:00;;;;;;;;;12.00;11.50;;;;;19.19;49.38;100952.13;5014481;28;48155;-52
2021/09/18 07:55:26;;;;;;;;;10.50;10.50;;;;;19.21;49.62;100951.13;5013069;28;45391;-54
2021/09/18 07:57:52;;;;;;;;;11.00;11.00;;;;;19.24;49.59;100958.09;5012007;28;45540;-53
2021/09/18 08:00:17;;;;;;;;;13.50;12.25;;;;;19.26;49.46;100958.91;5013619;28;45246;-55
2021/09/18 08:02:42;;;;;;;;;13.75;11.25;;;;;19.28;49.62;100952.56;5016418;28;45354;-51
2021/09/18 08:05:09;;;;;;;;;13.50;13.50;;;;;19.31;49.38;100954.22;5010697;28;45377;-55
2021/09/18 08:07:34;;;;;;;;;13.00;11.00;;;;;19.33;49.49;100960.31;5014987;28;45322;-53
2021/09/18 08:10:00;;;;;;;;;11.25;11.25;;;;;19.38;49.57;100955.63;5015065;28;45359;-55
2021/09/18 08:12:26;;;;;;;;;12.25;12.25;;;;;19.41;49.63;100958.16;5010848;28;46207;-55
2021/09/18 08:14:52;;;;;;;;;12.50;12.25;;;;;19.46;49.75;100964.13;5016196;28;45613;-54
2021/09/18 08:17:17;;;;;;;;;15.75;14.50;;;;;19.51;49.36;100965.72;5009502;28;45487;-56
2021/09/18 08:19:43;;;;;;;;;14.50;14.50;;;;;19.56;49.41;100966.34;5015199;28;45506;-55
2021/09/18 08:22:08;;;;;;;;;12.25;12.25;;;;;19.60;49.37;100958.13;5008233;28;45493;-52
2021/09/18 08:24:34;;;;;;;;;14.50;13.25;;;;;19.63;49.56;100958.00;5013612;28;45375;-55
2021/09/18 08:26:59;;;;;;;;;16.25;13.25;;;;;19.69;49.84;100964.81;5014329;28;45383;-55
2021/09/18 08:29:24;;;;;;;;;17.25;15.75;;;;;19.73;49.75;100966.38;5011492;28;45439;-53
2021/09/18 08:31:50;;;;;;;;;12.00;12.00;;;;;19.76;49.56;100960.94;5018083;28;47095;-53
2021/09/18 08:34:15;;;;;;;;;15.00;14.50;;;;;19.81;49.29;100969.56;5017114;28;45371;-55
2021/09/18 08:36:41;;;;;;;;;13.25;12.25;;;;;19.86;49.60;100963.16;5015902;28;45252;-51
2021/09/18 08:39:06;;;;;;;;;15.75;15.50;;;;;19.91;49.48;100963.78;5010945;28;45921;-55
2021/09/18 08:41:32;;;;;;;;;17.00;13.50;;;;;19.96;49.34;100967.09;5014134;28;46097;-51
2021/09/18 08:43:58;;;;;;;;;15.75;14.50;;;;;20.01;49.45;100967.72;5009324;28;45654;-55
2021/09/18 08:46:25;;;;;;;;;15.50;12.25;;;;;20.06;49.39;100962.16;5011175;28;45446;-57
2021/09/18 08:48:52;;;;;;;;;14.50;12.75;;;;;20.11;49.72;100958.34;4999577;28;45437;-55
2021/09/18 08:51:18;;;;;;;;;13.75;12.50;;;;;20.17;49.43;100951.81;5008546;28;48541;-55
2021/09/18 08:53:43;;;;;;;;;16.00;13.25;;;;;20.21;49.39;100956.03;5015118;28;45308;-55
2021/09/18 08:56:09;;;;;;;;;14.25;12.50;;;;;20.30;49.74;100957.38;5014541;28;45340;-55
2021/09/18 08:58:34;;;;;;;;;15.75;13.75;;;;;20.37;49.75;100956.13;5014062;28;45416;-54
2021/09/18 09:01:00;;;;;;;;;10.50;10.25;;;;;20.44;49.78;100954.84;5013749;28;46357;-54
2021/09/18 09:03:36;;;;;;;;;11.00;11.00;;;;;20.54;49.22;100951.69;5012667;28;45662;-55
2021/09/18 09:06:13;;;;;;;;;19.00;13.00;;;;;20.60;49.65;100952.25;5013604;28;45396;-57
2021/09/18 09:08:42;;;;;;;;;13.50;13.50;;;;;20.72;49.03;100949.91;5016331;28;45542;-56
2021/09/18 09:11:17;;;;;;;;;15.25;11.75;;;;;20.82;49.11;100956.47;4997358;28;45497;-57
2021/09/18 09:14:08;;;;;;;;;11.25;10.75;;;;;20.94;49.55;100960.28;5010497;28;45371;-59
2021/09/18 09:16:35;;;;;;;;;11.75;11.25;;;;;21.04;49.27;100958.84;5010414;28;45324;-56
2021/09/18 09:19:15;;;;;;;;;9.50;9.50;;;;;21.16;49.50;100957.31;5011843;28;45283;-56
2021/09/18 09:21:47;;;;;;;;;10.50;9.25;;;;;21.27;49.58;100952.22;5009708;28;47116;-60
2021/09/18 09:24:15;;;;;;;;;10.50;10.00;;;;;21.38;49.37;100948.97;5013720;28;45453;-55
2021/09/18 09:27:02;;;;;;;;;10.00;9.25;;;;;21.51;49.46;100961.59;5009659;28;45373;-57
2021/09/18 09:29:44;;;;;;;;;10.50;9.50;;;;;21.65;49.40;100943.00;5011125;28;45537;-55
2021/09/18 09:32:32;;;;;;;;;10.75;9.25;;;;;21.78;49.00;100942.31;5014488;28;46336;-65
2021/09/18 09:35:00;;;;;;;;;12.50;12.00;;;;;21.89;48.87;100937.19;5012353;28;45286;-62
2021/09/18 09:37:26;;;;;;;;;10.75;10.00;;;;;22.02;49.36;100940.84;4999139;28;45526;-58
2021/09/18 09:39:54;;;;;;;;;8.50;8.50;;;;;22.14;49.27;100933.03;5010996;28;45273;-58
2021/09/18 09:42:27;;;;;;;;;8.50;8.25;;;;;22.28;49.16;100938.44;5011376;28;46166;-59
2021/09/18 09:44:54;;;;;;;;;12.00;10.75;;;;;22.42;48.92;100936.78;5010308;28;45361;-59
2021/09/18 09:47:23;;;;;;;;;11.75;11.25;;;;;22.53;48.68;100936.97;5011169;28;45438;-61
2021/09/18 09:49:55;;;;;;;;;15.00;13.75;;;;;22.66;48.76;100937.06;5014403;28;45482;-60
2021/09/18 09:52:29;;;;;;;;;11.00;10.75;;;;;22.78;48.44;100941.66;5008632;28;46344;-59
2021/09/18 09:55:16;;;;;;;;;11.00;9.75;;;;;22.92;48.66;100943.47;5013004;28;45455;-61
2021/09/18 09:57:55;;;;;;;;;11.00;11.00;;;;;23.04;48.62;100940.03;5008108;28;45269;-58
2021/09/18 10:00:21;;;;;;;;;6.50;6.50;;;;;23.16;48.46;100941.09;5011822;28;45566;-61
2021/09/18 10:02:46;;;;;;;;;13.25;11.50;;;;;23.27;48.71;100942.19;5016851;28;46338;-61
2021/09/18 10:05:15;;;;;;;;;7.75;7.75;;;;;23.39;48.51;100930.69;5011024;28;45462;-59
2021/09/18 10:07:41;;;;;;;;;10.00;9.75;;;;;23.50;48.38;100938.88;5016210;28;45333;-65
2021/09/18 10:10:10;;;;;;;;;10.25;9.75;;;;;23.63;48.31;100935.41;5016647;28;45345;-65
2021/09/18 10:12:37;;;;;;;;;8.25;8.25;;;;;23.75;48.23;100931.03;5007308;28;45470;-53
2021/09/18 10:15:06;;;;;;;;;12.00;10.25;;;;;23.88;48.17;100936.47;5015456;28;45421;-51
2021/09/18 10:17:36;;;;;;;;;8.00;7.25;;;;;24.01;48.44;100940.91;5013858;28;45358;-59
2021/09/18 10:20:06;;;;;;;;;7.00;7.00;;;;;24.13;48.17;100935.69;5012318;28;45538;-60
2021/09/18 10:25:21;;;;;;;;;9.50;8.50;;;;;24.38;48.20;100929.47;5012220;28;46401;-55
2021/09/18 10:28:10;;;;;;;;;13.25;10.25;;;;;24.53;47.57;100932.91;5017424;28;45308;-55
2021/09/18 10:30:38;;;;;;;;;9.00;9.00;;;;;24.67;47.69;100938.19;5017342;28;45465;-62
2021/09/18 10:33:04;;;;;;;;;8.50;8.50;;;;;24.80;47.77;100926.56;5013570;28;46080;-58
2021/09/18 10:35:31;;;;;;;;;10.25;9.00;;;;;24.95;47.62;100932.69;5020585;28;45235;-57
2021/09/18 10:37:57;;;;;;;;;8.00;8.00;;;;;25.08;47.34;100935.34;5009757;28;45170;-57
2021/09/18 10:40:23;;;;;;;;;8.00;8.00;;;;;25.22;47.23;100926.25;5010097;28;45736;-57
2021/09/18 10:42:51;;;;;;;;;8.25;7.00;;;;;25.37;47.72;100921.63;5015736;28;47376;-57
2021/09/18 10:45:18;;;;;;;;;7.75;7.75;;;;;25.51;47.44;100917.91;5008820;28;45653;-57
2021/09/18 10:47:49;;;;;;;;;8.25;8.25;;;;;25.67;46.72;100912.22;5012701;28;45445;-57
2021/09/18 10:50:21;;;;;;;;;5.00;5.00;;;;;25.82;47.23;100908.38;5007386;28;45510;-57
2021/09/18 10:52:57;;;;;;;;;7.25;7.25;;;;;26.01;47.22;100899.78;5013882;28;46264;-56
2021/09/18 10:55:23;;;;;;;;;8.50;8.50;;;;;26.19;47.09;100908.28;5013340;28;45357;-58
2021/09/18 10:57:48;;;;;;;;;10.50;7.75;;;;;26.39;46.99;100909.41;5008441;28;45313;-57
2021/09/18 11:00:21;;;;;;;;;6.50;6.25;;;;;26.61;47.11;100897.78;5008294;28;45489;-56
2021/09/18 11:02:57;;;;;;;;;5.25;5.25;;;;;26.84;47.06;100895.13;5020003;28;46387;-55
2021/09/18 11:05:26;;;;;;;;;7.75;6.00;;;;;27.08;46.92;100888.69;5008177;28;45344;-53
2021/09/18 11:07:55;;;;;;;;;5.00;5.00;;;;;27.33;46.44;100897.47;5008814;28;45317;-55
2021/09/18 11:10:20;;;;;;;;;5.25;5.25;;;;;27.60;46.35;100890.78;5015695;28;45495;-53
2021/09/18 11:13:31;;;;;;;;;5.25;4.00;;;;;27.93;46.38;100891.63;5001936;28;45665;-54